sensor_id;sensor_type;location;lat;lon;timestamp;P1;durP1;ratioP1;P2;durP2;ratioP2
78072;SDS011;67281;48.770;11.440;2023-10-19T00:00:35;23.60;;;18.80;;
78072;SDS011;67281;48.770;11.440;2023-10-19T00:03:07;23.93;;;19.13;;
78072;SDS011;67281;48.770;11.440;2023-10-19T00:05:34;26.80;;;19.63;;
78072;SDS011;67281;48.770;11.440;2023-10-19T00:08:02;23.80;;;20.03;;
78072;SDS011;67281;48.770;11.440;2023-10-19T00:10:39;24.03;;;19.17;;
78072;SDS011;67281;48.770;11.440;2023-10-19T00:13:10;24.93;;;18.93;;
78072;SDS011;67281;48.770;11.440;2023-10-19T00:15:39;24.13;;;19.10;;
78072;SDS011;67281;48.770;11.440;2023-10-19T00:18:18;22.93;;;18.73;;
78072;SDS011;67281;48.770;11.440;2023-10-19T00:20:45;24.50;;;18.93;;
78072;SDS011;67281;48.770;11.440;2023-10-19T00:23:20;23.67;;;19.13;;
78072;SDS011;67281;48.770;11.440;2023-10-19T00:26:01;22.10;;;18.03;;
78072;SDS011;67281;48.770;11.440;2023-10-19T00:28:37;24.23;;;19.40;;
78072;SDS011;67281;48.770;11.440;2023-10-19T00:31:05;24.63;;;19.90;;
78072;SDS011;67281;48.770;11.440;2023-10-19T00:33:35;22.70;;;19.07;;
78072;SDS011;67281;48.770;11.440;2023-10-19T00:36:08;25.20;;;18.93;;
78072;SDS011;67281;48.770;11.440;2023-10-19T00:38:40;23.13;;;18.40;;
78072;SDS011;67281;48.770;11.440;2023-10-19T00:41:27;26.13;;;20.00;;
78072;SDS011;67281;48.770;11.440;2023-10-19T00:43:56;23.30;;;19.03;;
78072;SDS011;67281;48.770;11.440;2023-10-19T00:46:25;23.93;;;19.43;;
78072;SDS011;67281;48.770;11.440;2023-10-19T00:49:04;22.77;;;18.67;;
78072;SDS011;67281;48.770;11.440;2023-10-19T00:51:39;24.93;;;20.33;;
78072;SDS011;67281;48.770;11.440;2023-10-19T00:54:25;26.77;;;19.70;;
78072;SDS011;67281;48.770;11.440;2023-10-19T00:57:02;23.80;;;19.33;;
78072;SDS011;67281;48.770;11.440;2023-10-19T00:59:32;24.33;;;19.33;;
78072;SDS011;67281;48.770;11.440;2023-10-19T01:02:05;24.47;;;19.10;;
78072;SDS011;67281;48.770;11.440;2023-10-19T01:04:54;26.00;;;20.27;;
78072;SDS011;67281;48.770;11.440;2023-10-19T01:07:32;23.63;;;19.43;;
78072;SDS011;67281;48.770;11.440;2023-10-19T01:10:08;23.23;;;19.47;;
78072;SDS011;67281;48.770;11.440;2023-10-19T01:12:38;26.60;;;19.80;;
78072;SDS011;67281;48.770;11.440;2023-10-19T01:15:13;23.70;;;19.70;;
78072;SDS011;67281;48.770;11.440;2023-10-19T01:17:50;23.57;;;20.20;;
78072;SDS011;67281;48.770;11.440;2023-10-19T01:20:20;25.10;;;20.33;;
78072;SDS011;67281;48.770;11.440;2023-10-19T01:22:50;25.10;;;19.80;;
78072;SDS011;67281;48.770;11.440;2023-10-19T01:25:20;26.07;;;19.83;;
78072;SDS011;67281;48.770;11.440;2023-10-19T01:28:02;22.77;;;19.43;;
78072;SDS011;67281;48.770;11.440;2023-10-19T01:30:33;25.50;;;19.63;;
78072;SDS011;67281;48.770;11.440;2023-10-19T01:33:00;26.57;;;20.90;;
78072;SDS011;67281;48.770;11.440;2023-10-19T01:35:28;25.23;;;20.37;;
78072;SDS011;67281;48.770;11.440;2023-10-19T01:38:15;25.47;;;20.27;;
78072;SDS011;67281;48.770;11.440;2023-10-19T01:40:42;27.90;;;20.80;;
78072;SDS011;67281;48.770;11.440;2023-10-19T01:43:12;25.10;;;20.00;;
78072;SDS011;67281;48.770;11.440;2023-10-19T01:45:48;25.87;;;21.50;;
78072;SDS011;67281;48.770;11.440;2023-10-19T01:48:15;27.07;;;20.83;;
78072;SDS011;67281;48.770;11.440;2023-10-19T01:50:42;25.67;;;20.43;;
78072;SDS011;67281;48.770;11.440;2023-10-19T01:53:10;24.77;;;20.50;;
78072;SDS011;67281;48.770;11.440;2023-10-19T01:55:42;25.20;;;21.03;;
78072;SDS011;67281;48.770;11.440;2023-10-19T01:58:10;26.10;;;20.37;;
78072;SDS011;67281;48.770;11.440;2023-10-19T02:00:37;25.77;;;20.80;;
78072;SDS011;67281;48.770;11.440;2023-10-19T02:03:06;26.93;;;20.27;;
78072;SDS011;67281;48.770;11.440;2023-10-19T02:05:34;27.60;;;21.27;;
78072;SDS011;67281;48.770;11.440;2023-10-19T02:08:08;24.63;;;20.37;;
78072;SDS011;67281;48.770;11.440;2023-10-19T02:10:35;27.77;;;21.40;;
78072;SDS011;67281;48.770;11.440;2023-10-19T02:13:02;26.87;;;21.40;;
78072;SDS011;67281;48.770;11.440;2023-10-19T02:15:33;27.17;;;21.30;;
78072;SDS011;67281;48.770;11.440;2023-10-19T02:18:02;25.80;;;20.43;;
78072;SDS011;67281;48.770;11.440;2023-10-19T02:20:29;27.50;;;21.03;;
78072;SDS011;67281;48.770;11.440;2023-10-19T02:23:09;23.77;;;19.93;;
78072;SDS011;67281;48.770;11.440;2023-10-19T02:25:36;26.27;;;20.50;;
78072;SDS011;67281;48.770;11.440;2023-10-19T02:28:04;27.77;;;21.27;;
78072;SDS011;67281;48.770;11.440;2023-10-19T02:30:33;27.23;;;20.70;;
78072;SDS011;67281;48.770;11.440;2023-10-19T02:33:04;28.37;;;21.77;;
78072;SDS011;67281;48.770;11.440;2023-10-19T02:35:32;24.67;;;20.57;;
78072;SDS011;67281;48.770;11.440;2023-10-19T02:38:01;23.73;;;20.27;;
78072;SDS011;67281;48.770;11.440;2023-10-19T02:40:28;25.23;;;20.80;;
78072;SDS011;67281;48.770;11.440;2023-10-19T02:43:00;26.33;;;20.90;;
78072;SDS011;67281;48.770;11.440;2023-10-19T02:45:29;26.63;;;21.60;;
78072;SDS011;67281;48.770;11.440;2023-10-19T02:47:57;27.13;;;20.87;;
78072;SDS011;67281;48.770;11.440;2023-10-19T02:50:25;27.73;;;20.50;;
78072;SDS011;67281;48.770;11.440;2023-10-19T02:52:53;27.73;;;21.63;;
78072;SDS011;67281;48.770;11.440;2023-10-19T02:55:20;26.50;;;22.47;;
78072;SDS011;67281;48.770;11.440;2023-10-19T02:57:50;26.07;;;21.37;;
78072;SDS011;67281;48.770;11.440;2023-10-19T03:00:17;28.47;;;21.80;;
78072;SDS011;67281;48.770;11.440;2023-10-19T03:02:47;27.53;;;21.97;;
78072;SDS011;67281;48.770;11.440;2023-10-19T03:05:15;26.70;;;22.00;;
78072;SDS011;67281;48.770;11.440;2023-10-19T03:07:44;27.77;;;22.90;;
78072;SDS011;67281;48.770;11.440;2023-10-19T03:10:11;30.47;;;23.03;;
78072;SDS011;67281;48.770;11.440;2023-10-19T03:12:50;29.03;;;22.67;;
78072;SDS011;67281;48.770;11.440;2023-10-19T03:15:17;28.13;;;21.97;;
78072;SDS011;67281;48.770;11.440;2023-10-19T03:17:47;26.53;;;22.27;;
78072;SDS011;67281;48.770;11.440;2023-10-19T03:20:15;28.67;;;22.87;;
78072;SDS011;67281;48.770;11.440;2023-10-19T03:22:50;27.17;;;22.53;;
78072;SDS011;67281;48.770;11.440;2023-10-19T03:25:17;28.27;;;22.80;;
78072;SDS011;67281;48.770;11.440;2023-10-19T03:28:03;29.60;;;22.67;;
78072;SDS011;67281;48.770;11.440;2023-10-19T03:30:37;28.67;;;21.57;;
78072;SDS011;67281;48.770;11.440;2023-10-19T03:33:07;28.03;;;21.97;;
78072;SDS011;67281;48.770;11.440;2023-10-19T03:35:39;28.50;;;23.47;;
78072;SDS011;67281;48.770;11.440;2023-10-19T03:38:08;30.13;;;22.27;;
78072;SDS011;67281;48.770;11.440;2023-10-19T03:40:42;28.70;;;23.87;;
78072;SDS011;67281;48.770;11.440;2023-10-19T03:43:18;33.83;;;25.33;;
78072;SDS011;67281;48.770;11.440;2023-10-19T03:45:49;28.23;;;23.47;;
78072;SDS011;67281;48.770;11.440;2023-10-19T03:48:19;26.80;;;23.23;;
78072;SDS011;67281;48.770;11.440;2023-10-19T03:51:04;28.77;;;22.47;;
78072;SDS011;67281;48.770;11.440;2023-10-19T03:53:31;27.90;;;22.47;;
78072;SDS011;67281;48.770;11.440;2023-10-19T03:55:59;28.33;;;22.43;;
78072;SDS011;67281;48.770;11.440;2023-10-19T03:58:26;26.03;;;21.17;;
78072;SDS011;67281;48.770;11.440;2023-10-19T04:00:57;29.50;;;23.77;;
78072;SDS011;67281;48.770;11.440;2023-10-19T04:03:28;28.27;;;22.90;;
78072;SDS011;67281;48.770;11.440;2023-10-19T04:05:57;29.67;;;23.30;;
78072;SDS011;67281;48.770;11.440;2023-10-19T04:08:27;29.53;;;22.67;;
78072;SDS011;67281;48.770;11.440;2023-10-19T04:10:57;28.83;;;22.37;;
78072;SDS011;67281;48.770;11.440;2023-10-19T04:13:43;29.33;;;23.50;;
78072;SDS011;67281;48.770;11.440;2023-10-19T04:16:12;31.23;;;24.13;;
78072;SDS011;67281;48.770;11.440;2023-10-19T04:18:39;29.97;;;23.33;;
78072;SDS011;67281;48.770;11.440;2023-10-19T04:21:10;33.30;;;24.03;;
78072;SDS011;67281;48.770;11.440;2023-10-19T04:23:37;31.77;;;24.53;;
78072;SDS011;67281;48.770;11.440;2023-10-19T04:26:04;30.03;;;24.43;;
78072;SDS011;67281;48.770;11.440;2023-10-19T04:28:38;30.33;;;24.47;;
78072;SDS011;67281;48.770;11.440;2023-10-19T04:31:16;30.63;;;23.60;;
78072;SDS011;67281;48.770;11.440;2023-10-19T04:33:45;31.97;;;24.20;;
78072;SDS011;67281;48.770;11.440;2023-10-19T04:36:13;28.80;;;23.57;;
78072;SDS011;67281;48.770;11.440;2023-10-19T04:38:40;29.53;;;23.57;;
78072;SDS011;67281;48.770;11.440;2023-10-19T04:41:08;30.77;;;24.53;;
78072;SDS011;67281;48.770;11.440;2023-10-19T04:43:36;32.67;;;24.20;;
78072;SDS011;67281;48.770;11.440;2023-10-19T04:46:06;30.03;;;24.13;;
78072;SDS011;67281;48.770;11.440;2023-10-19T04:48:38;31.57;;;24.73;;
78072;SDS011;67281;48.770;11.440;2023-10-19T04:51:09;30.23;;;23.80;;
78072;SDS011;67281;48.770;11.440;2023-10-19T04:53:36;30.90;;;23.33;;
78072;SDS011;67281;48.770;11.440;2023-10-19T04:56:04;31.73;;;23.37;;
78072;SDS011;67281;48.770;11.440;2023-10-19T04:58:39;32.83;;;23.37;;
78072;SDS011;67281;48.770;11.440;2023-10-19T05:01:06;31.50;;;24.03;;
78072;SDS011;67281;48.770;11.440;2023-10-19T05:03:33;33.90;;;23.87;;
78072;SDS011;67281;48.770;11.440;2023-10-19T05:06:01;30.10;;;24.13;;
78072;SDS011;67281;48.770;11.440;2023-10-19T05:08:28;31.20;;;24.00;;
78072;SDS011;67281;48.770;11.440;2023-10-19T05:10:56;30.43;;;24.47;;
78072;SDS011;67281;48.770;11.440;2023-10-19T05:13:23;30.50;;;24.10;;
78072;SDS011;67281;48.770;11.440;2023-10-19T05:15:52;32.80;;;24.37;;
78072;SDS011;67281;48.770;11.440;2023-10-19T05:18:29;31.63;;;24.27;;
78072;SDS011;67281;48.770;11.440;2023-10-19T05:21:32;29.33;;;24.43;;
78072;SDS011;67281;48.770;11.440;2023-10-19T05:24:00;32.83;;;24.80;;
78072;SDS011;67281;48.770;11.440;2023-10-19T05:26:27;30.30;;;24.43;;
78072;SDS011;67281;48.770;11.440;2023-10-19T05:28:54;30.70;;;23.80;;
78072;SDS011;67281;48.770;11.440;2023-10-19T05:31:21;30.93;;;23.93;;
78072;SDS011;67281;48.770;11.440;2023-10-19T05:33:48;34.17;;;25.23;;
78072;SDS011;67281;48.770;11.440;2023-10-19T05:36:17;30.83;;;24.77;;
78072;SDS011;67281;48.770;11.440;2023-10-19T05:38:44;32.33;;;25.50;;
78072;SDS011;67281;48.770;11.440;2023-10-19T05:41:11;32.93;;;25.70;;
78072;SDS011;67281;48.770;11.440;2023-10-19T05:43:38;33.73;;;25.57;;
78072;SDS011;67281;48.770;11.440;2023-10-19T05:46:05;33.37;;;25.90;;
78072;SDS011;67281;48.770;11.440;2023-10-19T05:48:32;30.87;;;24.90;;
78072;SDS011;67281;48.770;11.440;2023-10-19T05:50:59;30.27;;;24.87;;
78072;SDS011;67281;48.770;11.440;2023-10-19T05:53:26;32.73;;;25.40;;
78072;SDS011;67281;48.770;11.440;2023-10-19T05:55:52;33.43;;;25.57;;
78072;SDS011;67281;48.770;11.440;2023-10-19T05:58:19;32.60;;;26.27;;
78072;SDS011;67281;48.770;11.440;2023-10-19T06:00:47;30.80;;;24.90;;
78072;SDS011;67281;48.770;11.440;2023-10-19T06:03:13;31.03;;;24.93;;
78072;SDS011;67281;48.770;11.440;2023-10-19T06:05:41;31.30;;;24.53;;
78072;SDS011;67281;48.770;11.440;2023-10-19T06:08:07;29.07;;;23.67;;
78072;SDS011;67281;48.770;11.440;2023-10-19T06:10:35;31.07;;;24.70;;
78072;SDS011;67281;48.770;11.440;2023-10-19T06:13:02;31.20;;;23.87;;
78072;SDS011;67281;48.770;11.440;2023-10-19T06:15:29;29.13;;;23.33;;
78072;SDS011;67281;48.770;11.440;2023-10-19T06:17:57;28.90;;;24.40;;
78072;SDS011;67281;48.770;11.440;2023-10-19T06:20:24;28.63;;;23.53;;
78072;SDS011;67281;48.770;11.440;2023-10-19T06:22:53;32.50;;;25.33;;
78072;SDS011;67281;48.770;11.440;2023-10-19T06:25:31;29.73;;;24.10;;
78072;SDS011;67281;48.770;11.440;2023-10-19T06:28:01;29.03;;;23.77;;
78072;SDS011;67281;48.770;11.440;2023-10-19T06:30:29;29.07;;;23.60;;
78072;SDS011;67281;48.770;11.440;2023-10-19T06:32:59;29.43;;;24.77;;
78072;SDS011;67281;48.770;11.440;2023-10-19T06:35:28;29.47;;;24.87;;
78072;SDS011;67281;48.770;11.440;2023-10-19T06:37:58;29.33;;;23.47;;
78072;SDS011;67281;48.770;11.440;2023-10-19T06:40:30;29.83;;;24.43;;
78072;SDS011;67281;48.770;11.440;2023-10-19T06:43:00;32.37;;;24.53;;
78072;SDS011;67281;48.770;11.440;2023-10-19T06:45:29;28.83;;;22.93;;
78072;SDS011;67281;48.770;11.440;2023-10-19T06:47:56;28.37;;;23.40;;
78072;SDS011;67281;48.770;11.440;2023-10-19T06:50:24;32.83;;;23.97;;
78072;SDS011;67281;48.770;11.440;2023-10-19T06:52:52;29.67;;;23.40;;
78072;SDS011;67281;48.770;11.440;2023-10-19T06:55:21;28.57;;;23.60;;
78072;SDS011;67281;48.770;11.440;2023-10-19T06:57:50;25.90;;;21.47;;
78072;SDS011;67281;48.770;11.440;2023-10-19T07:00:18;26.47;;;21.10;;
78072;SDS011;67281;48.770;11.440;2023-10-19T07:02:47;25.07;;;21.77;;
78072;SDS011;67281;48.770;11.440;2023-10-19T07:05:17;26.60;;;20.87;;
78072;SDS011;67281;48.770;11.440;2023-10-19T07:07:48;26.40;;;22.30;;
78072;SDS011;67281;48.770;11.440;2023-10-19T07:10:18;31.60;;;22.67;;
78072;SDS011;67281;48.770;11.440;2023-10-19T07:12:52;29.63;;;23.50;;
78072;SDS011;67281;48.770;11.440;2023-10-19T07:15:20;28.67;;;22.00;;
78072;SDS011;67281;48.770;11.440;2023-10-19T07:17:52;31.00;;;23.93;;
78072;SDS011;67281;48.770;11.440;2023-10-19T07:20:21;31.10;;;23.50;;
78072;SDS011;67281;48.770;11.440;2023-10-19T07:23:05;29.80;;;23.13;;
78072;SDS011;67281;48.770;11.440;2023-10-19T07:25:53;32.60;;;23.50;;
78072;SDS011;67281;48.770;11.440;2023-10-19T07:28:26;28.80;;;21.63;;
78072;SDS011;67281;48.770;11.440;2023-10-19T07:30:54;32.10;;;22.80;;
78072;SDS011;67281;48.770;11.440;2023-10-19T07:33:23;29.30;;;21.70;;
78072;SDS011;67281;48.770;11.440;2023-10-19T07:35:50;25.70;;;21.77;;
78072;SDS011;67281;48.770;11.440;2023-10-19T07:38:23;27.20;;;22.30;;
78072;SDS011;67281;48.770;11.440;2023-10-19T07:40:52;27.03;;;21.47;;
78072;SDS011;67281;48.770;11.440;2023-10-19T07:43:20;24.60;;;20.87;;
78072;SDS011;67281;48.770;11.440;2023-10-19T07:45:48;25.27;;;21.03;;
78072;SDS011;67281;48.770;11.440;2023-10-19T07:48:16;26.00;;;21.23;;
78072;SDS011;67281;48.770;11.440;2023-10-19T07:50:43;24.90;;;20.60;;
78072;SDS011;67281;48.770;11.440;2023-10-19T07:53:11;24.33;;;20.00;;
78072;SDS011;67281;48.770;11.440;2023-10-19T07:55:38;25.67;;;21.17;;
78072;SDS011;67281;48.770;11.440;2023-10-19T07:58:06;29.17;;;21.23;;
78072;SDS011;67281;48.770;11.440;2023-10-19T08:00:33;26.97;;;20.67;;
78072;SDS011;67281;48.770;11.440;2023-10-19T08:03:01;22.00;;;19.47;;
78072;SDS011;67281;48.770;11.440;2023-10-19T08:05:30;24.77;;;21.10;;
78072;SDS011;67281;48.770;11.440;2023-10-19T08:07:57;26.07;;;21.03;;
78072;SDS011;67281;48.770;11.440;2023-10-19T08:10:25;30.73;;;21.20;;
78072;SDS011;67281;48.770;11.440;2023-10-19T08:12:53;26.60;;;21.70;;
78072;SDS011;67281;48.770;11.440;2023-10-19T08:15:22;25.80;;;20.80;;
78072;SDS011;67281;48.770;11.440;2023-10-19T08:17:49;23.67;;;20.63;;
78072;SDS011;67281;48.770;11.440;2023-10-19T08:20:21;24.83;;;20.60;;
78072;SDS011;67281;48.770;11.440;2023-10-19T08:22:58;23.17;;;19.93;;
78072;SDS011;67281;48.770;11.440;2023-10-19T08:25:28;25.03;;;21.03;;
78072;SDS011;67281;48.770;11.440;2023-10-19T08:28:15;24.63;;;18.20;;
78072;SDS011;67281;48.770;11.440;2023-10-19T08:30:42;23.80;;;19.73;;
78072;SDS011;67281;48.770;11.440;2023-10-19T08:33:11;24.90;;;20.93;;
78072;SDS011;67281;48.770;11.440;2023-10-19T08:35:40;22.47;;;19.70;;
78072;SDS011;67281;48.770;11.440;2023-10-19T08:38:07;24.10;;;20.30;;
78072;SDS011;67281;48.770;11.440;2023-10-19T08:40:38;27.03;;;20.33;;
78072;SDS011;67281;48.770;11.440;2023-10-19T08:43:06;25.57;;;20.57;;
78072;SDS011;67281;48.770;11.440;2023-10-19T08:45:40;23.93;;;19.83;;
78072;SDS011;67281;48.770;11.440;2023-10-19T08:48:08;22.70;;;19.03;;
78072;SDS011;67281;48.770;11.440;2023-10-19T08:50:35;24.13;;;20.67;;
78072;SDS011;67281;48.770;11.440;2023-10-19T08:53:05;26.43;;;20.93;;
78072;SDS011;67281;48.770;11.440;2023-10-19T08:55:35;23.50;;;20.70;;
78072;SDS011;67281;48.770;11.440;2023-10-19T08:58:15;23.97;;;20.07;;
78072;SDS011;67281;48.770;11.440;2023-10-19T09:00:48;23.80;;;19.60;;
78072;SDS011;67281;48.770;11.440;2023-10-19T09:03:18;23.10;;;19.83;;
78072;SDS011;67281;48.770;11.440;2023-10-19T09:05:45;23.83;;;19.40;;
78072;SDS011;67281;48.770;11.440;2023-10-19T09:08:14;23.77;;;19.03;;
78072;SDS011;67281;48.770;11.440;2023-10-19T09:10:47;22.83;;;19.00;;
78072;SDS011;67281;48.770;11.440;2023-10-19T09:13:16;24.07;;;19.47;;
78072;SDS011;67281;48.770;11.440;2023-10-19T09:15:46;23.73;;;19.87;;
78072;SDS011;67281;48.770;11.440;2023-10-19T09:20:45;23.33;;;19.67;;
78072;SDS011;67281;48.770;11.440;2023-10-19T09:23:20;24.07;;;19.80;;
78072;SDS011;67281;48.770;11.440;2023-10-19T09:25:52;24.23;;;20.00;;
78072;SDS011;67281;48.770;11.440;2023-10-19T09:28:23;25.40;;;20.60;;
78072;SDS011;67281;48.770;11.440;2023-10-19T09:30:51;26.80;;;22.37;;
78072;SDS011;67281;48.770;11.440;2023-10-19T09:33:19;25.53;;;21.17;;
78072;SDS011;67281;48.770;11.440;2023-10-19T09:35:48;27.33;;;23.30;;
78072;SDS011;67281;48.770;11.440;2023-10-19T09:38:19;28.47;;;23.03;;
78072;SDS011;67281;48.770;11.440;2023-10-19T09:40:52;28.57;;;23.10;;
78072;SDS011;67281;48.770;11.440;2023-10-19T09:43:34;28.60;;;23.77;;
78072;SDS011;67281;48.770;11.440;2023-10-19T09:46:07;27.83;;;24.27;;
78072;SDS011;67281;48.770;11.440;2023-10-19T09:48:42;27.90;;;23.63;;
78072;SDS011;67281;48.770;11.440;2023-10-19T09:51:12;28.80;;;23.17;;
78072;SDS011;67281;48.770;11.440;2023-10-19T09:53:44;28.87;;;23.17;;
78072;SDS011;67281;48.770;11.440;2023-10-19T09:56:18;30.53;;;23.93;;
78072;SDS011;67281;48.770;11.440;2023-10-19T09:58:53;31.23;;;23.50;;
78072;SDS011;67281;48.770;11.440;2023-10-19T10:01:24;28.93;;;23.83;;
78072;SDS011;67281;48.770;11.440;2023-10-19T10:03:53;28.43;;;23.43;;
78072;SDS011;67281;48.770;11.440;2023-10-19T10:06:27;35.03;;;25.33;;
78072;SDS011;67281;48.770;11.440;2023-10-19T10:08:56;32.93;;;27.87;;
78072;SDS011;67281;48.770;11.440;2023-10-19T10:11:27;32.23;;;25.17;;
78072;SDS011;67281;48.770;11.440;2023-10-19T10:13:55;33.73;;;27.00;;
78072;SDS011;67281;48.770;11.440;2023-10-19T10:16:24;34.97;;;27.87;;
78072;SDS011;67281;48.770;11.440;2023-10-19T10:18:59;30.47;;;25.10;;
78072;SDS011;67281;48.770;11.440;2023-10-19T10:21:27;36.93;;;29.20;;
78072;SDS011;67281;48.770;11.440;2023-10-19T10:24:00;37.83;;;30.37;;
78072;SDS011;67281;48.770;11.440;2023-10-19T10:26:30;35.07;;;27.50;;
78072;SDS011;67281;48.770;11.440;2023-10-19T10:29:23;50.43;;;37.50;;
78072;SDS011;67281;48.770;11.440;2023-10-19T10:31:50;59.53;;;43.63;;
78072;SDS011;67281;48.770;11.440;2023-10-19T10:37:12;32.40;;;26.27;;
78072;SDS011;67281;48.770;11.440;2023-10-19T10:39:40;33.53;;;28.03;;
78072;SDS011;67281;48.770;11.440;2023-10-19T10:42:08;31.73;;;26.73;;
78072;SDS011;67281;48.770;11.440;2023-10-19T10:44:40;32.93;;;26.77;;
78072;SDS011;67281;48.770;11.440;2023-10-19T10:47:21;36.53;;;28.13;;
78072;SDS011;67281;48.770;11.440;2023-10-19T10:49:58;32.30;;;25.73;;
78072;SDS011;67281;48.770;11.440;2023-10-19T10:52:30;34.53;;;28.27;;
78072;SDS011;67281;48.770;11.440;2023-10-19T10:55:08;26.63;;;21.07;;
78072;SDS011;67281;48.770;11.440;2023-10-19T10:57:38;27.07;;;23.40;;
78072;SDS011;67281;48.770;11.440;2023-10-19T11:00:07;33.90;;;27.47;;
78072;SDS011;67281;48.770;11.440;2023-10-19T11:02:46;31.47;;;25.40;;
78072;SDS011;67281;48.770;11.440;2023-10-19T11:05:16;29.83;;;25.20;;
78072;SDS011;67281;48.770;11.440;2023-10-19T11:10:31;31.57;;;26.63;;
78072;SDS011;67281;48.770;11.440;2023-10-19T11:15:36;32.10;;;24.10;;
78072;SDS011;67281;48.770;11.440;2023-10-19T11:18:04;27.03;;;24.07;;
78072;SDS011;67281;48.770;11.440;2023-10-19T11:20:34;31.00;;;23.10;;
78072;SDS011;67281;48.770;11.440;2023-10-19T11:23:00;28.47;;;23.20;;
78072;SDS011;67281;48.770;11.440;2023-10-19T11:25:29;27.13;;;22.20;;
78072;SDS011;67281;48.770;11.440;2023-10-19T11:27:59;27.53;;;21.53;;
78072;SDS011;67281;48.770;11.440;2023-10-19T11:30:30;29.47;;;22.03;;
78072;SDS011;67281;48.770;11.440;2023-10-19T11:32:58;26.47;;;23.30;;
78072;SDS011;67281;48.770;11.440;2023-10-19T11:35:28;24.47;;;20.20;;
78072;SDS011;67281;48.770;11.440;2023-10-19T11:37:58;24.40;;;20.20;;
78072;SDS011;67281;48.770;11.440;2023-10-19T11:40:26;20.67;;;18.47;;
78072;SDS011;67281;48.770;11.440;2023-10-19T11:42:54;26.13;;;19.23;;
78072;SDS011;67281;48.770;11.440;2023-10-19T11:45:26;24.10;;;19.00;;
78072;SDS011;67281;48.770;11.440;2023-10-19T11:47:53;22.27;;;18.47;;
78072;SDS011;67281;48.770;11.440;2023-10-19T11:50:21;20.83;;;18.60;;
78072;SDS011;67281;48.770;11.440;2023-10-19T11:52:48;24.10;;;19.83;;
78072;SDS011;67281;48.770;11.440;2023-10-19T11:55:15;24.30;;;21.23;;
78072;SDS011;67281;48.770;11.440;2023-10-19T11:57:42;24.07;;;21.47;;
78072;SDS011;67281;48.770;11.440;2023-10-19T12:00:10;26.73;;;21.47;;
78072;SDS011;67281;48.770;11.440;2023-10-19T12:02:46;26.50;;;23.23;;
78072;SDS011;67281;48.770;11.440;2023-10-19T12:05:13;24.87;;;20.97;;
78072;SDS011;67281;48.770;11.440;2023-10-19T12:07:40;25.13;;;21.53;;
78072;SDS011;67281;48.770;11.440;2023-10-19T12:10:08;27.10;;;23.30;;
78072;SDS011;67281;48.770;11.440;2023-10-19T12:12:37;23.30;;;20.73;;
78072;SDS011;67281;48.770;11.440;2023-10-19T12:15:24;24.23;;;21.63;;
78072;SDS011;67281;48.770;11.440;2023-10-19T12:17:52;24.43;;;21.57;;
78072;SDS011;67281;48.770;11.440;2023-10-19T12:20:21;25.47;;;21.43;;
78072;SDS011;67281;48.770;11.440;2023-10-19T12:22:48;26.87;;;21.40;;
78072;SDS011;67281;48.770;11.440;2023-10-19T12:25:19;24.30;;;21.37;;
78072;SDS011;67281;48.770;11.440;2023-10-19T12:27:47;23.97;;;20.10;;
78072;SDS011;67281;48.770;11.440;2023-10-19T12:30:15;23.57;;;19.13;;
78072;SDS011;67281;48.770;11.440;2023-10-19T12:32:48;21.33;;;18.55;;
78072;SDS011;67281;48.770;11.440;2023-10-19T12:35:19;25.88;;;22.02;;
78072;SDS011;67281;48.770;11.440;2023-10-19T12:37:56;27.07;;;23.57;;
78072;SDS011;67281;48.770;11.440;2023-10-19T12:40:23;29.13;;;24.90;;
78072;SDS011;67281;48.770;11.440;2023-10-19T12:42:53;28.40;;;25.30;;
78072;SDS011;67281;48.770;11.440;2023-10-19T12:45:24;28.03;;;23.23;;
78072;SDS011;67281;48.770;11.440;2023-10-19T12:47:52;28.75;;;24.20;;
78072;SDS011;67281;48.770;11.440;2023-10-19T12:50:19;30.67;;;24.50;;
78072;SDS011;67281;48.770;11.440;2023-10-19T12:52:50;30.93;;;24.93;;
78072;SDS011;67281;48.770;11.440;2023-10-19T12:55:18;29.97;;;22.90;;
78072;SDS011;67281;48.770;11.440;2023-10-19T12:57:44;24.55;;;21.98;;
78072;SDS011;67281;48.770;11.440;2023-10-19T13:00:11;27.50;;;23.63;;
78072;SDS011;67281;48.770;11.440;2023-10-19T13:02:52;24.95;;;22.25;;
78072;SDS011;67281;48.770;11.440;2023-10-19T13:08:10;27.58;;;22.40;;
78072;SDS011;67281;48.770;11.440;2023-10-19T13:10:45;29.00;;;20.83;;
78072;SDS011;67281;48.770;11.440;2023-10-19T13:13:15;24.00;;;20.88;;
78072;SDS011;67281;48.770;11.440;2023-10-19T13:15:43;22.45;;;19.15;;
78072;SDS011;67281;48.770;11.440;2023-10-19T13:18:12;22.20;;;18.80;;
78072;SDS011;67281;48.770;11.440;2023-10-19T13:20:40;23.15;;;20.75;;
78072;SDS011;67281;48.770;11.440;2023-10-19T13:23:10;22.35;;;19.63;;
78072;SDS011;67281;48.770;11.440;2023-10-19T13:25:48;22.90;;;20.40;;
78072;SDS011;67281;48.770;11.440;2023-10-19T13:28:17;22.67;;;19.75;;
78072;SDS011;67281;48.770;11.440;2023-10-19T13:30:50;21.88;;;18.52;;
78072;SDS011;67281;48.770;11.440;2023-10-19T13:33:20;22.60;;;19.25;;
78072;SDS011;67281;48.770;11.440;2023-10-19T13:35:48;22.60;;;19.73;;
78072;SDS011;67281;48.770;11.440;2023-10-19T13:38:15;23.63;;;20.67;;
78072;SDS011;67281;48.770;11.440;2023-10-19T13:40:47;21.48;;;18.95;;
78072;SDS011;67281;48.770;11.440;2023-10-19T13:43:16;21.70;;;18.73;;
78072;SDS011;67281;48.770;11.440;2023-10-19T13:45:45;23.23;;;19.83;;
78072;SDS011;67281;48.770;11.440;2023-10-19T13:48:13;21.67;;;19.38;;
78072;SDS011;67281;48.770;11.440;2023-10-19T13:50:42;21.38;;;19.17;;
78072;SDS011;67281;48.770;11.440;2023-10-19T13:53:12;22.45;;;19.65;;
78072;SDS011;67281;48.770;11.440;2023-10-19T13:55:39;21.90;;;19.52;;
78072;SDS011;67281;48.770;11.440;2023-10-19T13:58:06;25.27;;;21.10;;
78072;SDS011;67281;48.770;11.440;2023-10-19T14:00:33;21.50;;;19.23;;
78072;SDS011;67281;48.770;11.440;2023-10-19T14:03:01;24.88;;;21.23;;
78072;SDS011;67281;48.770;11.440;2023-10-19T14:05:38;25.20;;;20.67;;
78072;SDS011;67281;48.770;11.440;2023-10-19T14:08:09;24.92;;;21.83;;
78072;SDS011;67281;48.770;11.440;2023-10-19T14:10:37;23.13;;;20.60;;
78072;SDS011;67281;48.770;11.440;2023-10-19T14:13:06;23.85;;;21.25;;
78072;SDS011;67281;48.770;11.440;2023-10-19T14:15:33;24.42;;;20.63;;
78072;SDS011;67281;48.770;11.440;2023-10-19T14:18:00;26.88;;;22.58;;
78072;SDS011;67281;48.770;11.440;2023-10-19T14:20:28;30.80;;;21.85;;
78072;SDS011;67281;48.770;11.440;2023-10-19T14:22:56;23.42;;;20.90;;
78072;SDS011;67281;48.770;11.440;2023-10-19T14:25:24;27.40;;;22.35;;
78072;SDS011;67281;48.770;11.440;2023-10-19T14:27:52;23.25;;;20.77;;
78072;SDS011;67281;48.770;11.440;2023-10-19T14:30:24;26.88;;;22.55;;
78072;SDS011;67281;48.770;11.440;2023-10-19T14:32:52;25.33;;;22.63;;
78072;SDS011;67281;48.770;11.440;2023-10-19T14:35:20;28.70;;;23.63;;
78072;SDS011;67281;48.770;11.440;2023-10-19T14:37:48;26.03;;;22.83;;
78072;SDS011;67281;48.770;11.440;2023-10-19T14:40:18;28.00;;;23.70;;